sensor_id;sensor_type;location;lat;lon;timestamp;P1;durP1;ratioP1;P2;durP2;ratioP2
13991;SDS011;7070;53.586;9.692;2023-04-15T00:01:34;0.50;;;0.50;;
13991;SDS011;7070;53.586;9.692;2023-04-15T00:04:01;0.60;;;0.60;;
13991;SDS011;7070;53.586;9.692;2023-04-15T00:06:28;0.57;;;0.57;;
13991;SDS011;7070;53.586;9.692;2023-04-15T00:08:55;0.60;;;0.60;;
13991;SDS011;7070;53.586;9.692;2023-04-15T00:11:22;0.50;;;0.50;;
13991;SDS011;7070;53.586;9.692;2023-04-15T00:13:51;0.60;;;0.60;;
13991;SDS011;7070;53.586;9.692;2023-04-15T00:16:18;0.60;;;0.60;;
13991;SDS011;7070;53.586;9.692;2023-04-15T00:18:45;0.57;;;0.57;;
13991;SDS011;7070;53.586;9.692;2023-04-15T00:21:12;0.60;;;0.60;;
13991;SDS011;7070;53.586;9.692;2023-04-15T00:23:39;0.53;;;0.53;;
13991;SDS011;7070;53.586;9.692;2023-04-15T00:26:06;0.70;;;0.70;;
13991;SDS011;7070;53.586;9.692;2023-04-15T00:28:33;0.60;;;0.60;;
13991;SDS011;7070;53.586;9.692;2023-04-15T00:31:02;0.57;;;0.57;;
13991;SDS011;7070;53.586;9.692;2023-04-15T00:33:28;0.60;;;0.60;;
13991;SDS011;7070;53.586;9.692;2023-04-15T00:35:55;0.60;;;0.60;;
13991;SDS011;7070;53.586;9.692;2023-04-15T00:38:23;0.50;;;0.50;;
13991;SDS011;7070;53.586;9.692;2023-04-15T00:40:50;0.50;;;0.50;;
13991;SDS011;7070;53.586;9.692;2023-04-15T00:43:17;0.50;;;0.50;;
13991;SDS011;7070;53.586;9.692;2023-04-15T00:45:44;0.50;;;0.50;;
13991;SDS011;7070;53.586;9.692;2023-04-15T00:48:13;0.60;;;0.60;;
13991;SDS011;7070;53.586;9.692;2023-04-15T00:50:41;0.50;;;0.50;;
13991;SDS011;7070;53.586;9.692;2023-04-15T00:53:08;0.50;;;0.50;;
13991;SDS011;7070;53.586;9.692;2023-04-15T00:55:36;0.40;;;0.40;;
13991;SDS011;7070;53.586;9.692;2023-04-15T00:58:03;0.50;;;0.50;;
13991;SDS011;7070;53.586;9.692;2023-04-15T01:00:30;0.53;;;0.53;;
13991;SDS011;7070;53.586;9.692;2023-04-15T01:02:57;0.60;;;0.60;;
13991;SDS011;7070;53.586;9.692;2023-04-15T01:05:25;0.60;;;0.60;;
13991;SDS011;7070;53.586;9.692;2023-04-15T01:07:52;0.60;;;0.60;;
13991;SDS011;7070;53.586;9.692;2023-04-15T01:10:20;0.50;;;0.50;;
13991;SDS011;7070;53.586;9.692;2023-04-15T01:12:47;0.60;;;0.60;;
13991;SDS011;7070;53.586;9.692;2023-04-15T01:15:14;0.50;;;0.50;;
13991;SDS011;7070;53.586;9.692;2023-04-15T01:17:41;0.50;;;0.50;;
13991;SDS011;7070;53.586;9.692;2023-04-15T01:20:08;0.60;;;0.60;;
13991;SDS011;7070;53.586;9.692;2023-04-15T01:22:37;0.50;;;0.50;;
13991;SDS011;7070;53.586;9.692;2023-04-15T01:25:05;0.50;;;0.50;;
13991;SDS011;7070;53.586;9.692;2023-04-15T01:27:38;0.50;;;0.50;;
13991;SDS011;7070;53.586;9.692;2023-04-15T01:30:07;0.50;;;0.50;;
13991;SDS011;7070;53.586;9.692;2023-04-15T01:32:34;0.60;;;0.60;;
13991;SDS011;7070;53.586;9.692;2023-04-15T01:35:01;0.60;;;0.60;;
13991;SDS011;7070;53.586;9.692;2023-04-15T01:37:29;0.60;;;0.60;;
13991;SDS011;7070;53.586;9.692;2023-04-15T01:39:56;0.53;;;0.53;;
13991;SDS011;7070;53.586;9.692;2023-04-15T01:42:23;0.60;;;0.60;;
13991;SDS011;7070;53.586;9.692;2023-04-15T01:44:52;0.60;;;0.60;;
13991;SDS011;7070;53.586;9.692;2023-04-15T01:47:19;0.43;;;0.43;;
13991;SDS011;7070;53.586;9.692;2023-04-15T01:49:46;0.60;;;0.60;;
13991;SDS011;7070;53.586;9.692;2023-04-15T01:52:13;0.60;;;0.60;;
13991;SDS011;7070;53.586;9.692;2023-04-15T01:54:40;0.60;;;0.60;;
13991;SDS011;7070;53.586;9.692;2023-04-15T01:57:07;0.50;;;0.50;;
13991;SDS011;7070;53.586;9.692;2023-04-15T01:59:34;0.60;;;0.60;;
13991;SDS011;7070;53.586;9.692;2023-04-15T02:02:02;0.50;;;0.50;;
13991;SDS011;7070;53.586;9.692;2023-04-15T02:04:29;0.50;;;0.50;;
13991;SDS011;7070;53.586;9.692;2023-04-15T02:06:57;0.40;;;0.40;;
13991;SDS011;7070;53.586;9.692;2023-04-15T02:09:24;0.60;;;0.60;;
13991;SDS011;7070;53.586;9.692;2023-04-15T02:11:51;0.50;;;0.50;;
13991;SDS011;7070;53.586;9.692;2023-04-15T02:14:18;0.60;;;0.60;;
13991;SDS011;7070;53.586;9.692;2023-04-15T02:16:45;0.60;;;0.60;;
13991;SDS011;7070;53.586;9.692;2023-04-15T02:19:13;0.60;;;0.60;;
13991;SDS011;7070;53.586;9.692;2023-04-15T02:21:40;0.60;;;0.60;;
13991;SDS011;7070;53.586;9.692;2023-04-15T02:24:07;0.70;;;0.70;;
13991;SDS011;7070;53.586;9.692;2023-04-15T02:26:36;0.50;;;0.50;;
13991;SDS011;7070;53.586;9.692;2023-04-15T02:29:03;0.60;;;0.60;;
13991;SDS011;7070;53.586;9.692;2023-04-15T02:31:29;0.53;;;0.53;;
13991;SDS011;7070;53.586;9.692;2023-04-15T02:34:00;0.53;;;0.53;;
13991;SDS011;7070;53.586;9.692;2023-04-15T02:36:32;0.60;;;0.60;;
13991;SDS011;7070;53.586;9.692;2023-04-15T02:38:58;0.53;;;0.53;;
13991;SDS011;7070;53.586;9.692;2023-04-15T02:41:25;0.60;;;0.60;;
13991;SDS011;7070;53.586;9.692;2023-04-15T02:43:52;0.60;;;0.60;;
13991;SDS011;7070;53.586;9.692;2023-04-15T02:46:19;0.60;;;0.60;;
13991;SDS011;7070;53.586;9.692;2023-04-15T02:48:47;0.50;;;0.50;;
13991;SDS011;7070;53.586;9.692;2023-04-15T02:51:14;0.60;;;0.60;;
13991;SDS011;7070;53.586;9.692;2023-04-15T02:53:45;0.50;;;0.50;;
13991;SDS011;7070;53.586;9.692;2023-04-15T02:56:12;0.60;;;0.60;;
13991;SDS011;7070;53.586;9.692;2023-04-15T02:58:41;0.60;;;0.60;;
13991;SDS011;7070;53.586;9.692;2023-04-15T03:01:09;0.60;;;0.60;;
13991;SDS011;7070;53.586;9.692;2023-04-15T03:03:36;0.60;;;0.60;;
13991;SDS011;7070;53.586;9.692;2023-04-15T03:06:03;0.70;;;0.70;;
13991;SDS011;7070;53.586;9.692;2023-04-15T03:08:31;0.70;;;0.70;;
13991;SDS011;7070;53.586;9.692;2023-04-15T03:10:59;0.60;;;0.60;;
13991;SDS011;7070;53.586;9.692;2023-04-15T03:13:26;0.50;;;0.50;;
13991;SDS011;7070;53.586;9.692;2023-04-15T03:15:53;0.60;;;0.60;;
13991;SDS011;7070;53.586;9.692;2023-04-15T03:18:20;0.50;;;0.50;;
13991;SDS011;7070;53.586;9.692;2023-04-15T03:20:47;0.50;;;0.50;;
13991;SDS011;7070;53.586;9.692;2023-04-15T03:23:14;0.57;;;0.57;;
13991;SDS011;7070;53.586;9.692;2023-04-15T03:25:41;0.60;;;0.60;;
13991;SDS011;7070;53.586;9.692;2023-04-15T03:28:11;0.60;;;0.60;;
13991;SDS011;7070;53.586;9.692;2023-04-15T03:30:38;0.50;;;0.50;;
13991;SDS011;7070;53.586;9.692;2023-04-15T03:33:05;0.57;;;0.57;;
13991;SDS011;7070;53.586;9.692;2023-04-15T03:35:32;0.60;;;0.60;;
13991;SDS011;7070;53.586;9.692;2023-04-15T03:37:59;0.53;;;0.53;;
13991;SDS011;7070;53.586;9.692;2023-04-15T03:40:26;0.50;;;0.50;;
13991;SDS011;7070;53.586;9.692;2023-04-15T03:42:53;0.60;;;0.60;;
13991;SDS011;7070;53.586;9.692;2023-04-15T03:45:21;0.70;;;0.70;;
13991;SDS011;7070;53.586;9.692;2023-04-15T03:47:48;0.60;;;0.60;;
13991;SDS011;7070;53.586;9.692;2023-04-15T03:50:15;0.53;;;0.53;;
13991;SDS011;7070;53.586;9.692;2023-04-15T03:52:42;0.50;;;0.50;;
13991;SDS011;7070;53.586;9.692;2023-04-15T03:55:09;0.40;;;0.40;;
13991;SDS011;7070;53.586;9.692;2023-04-15T03:57:36;0.60;;;0.60;;
13991;SDS011;7070;53.586;9.692;2023-04-15T04:00:04;0.60;;;0.60;;
13991;SDS011;7070;53.586;9.692;2023-04-15T04:02:34;0.50;;;0.50;;
13991;SDS011;7070;53.586;9.692;2023-04-15T04:05:01;0.50;;;0.50;;
13991;SDS011;7070;53.586;9.692;2023-04-15T04:07:28;0.50;;;0.50;;
13991;SDS011;7070;53.586;9.692;2023-04-15T04:09:56;0.60;;;0.60;;
13991;SDS011;7070;53.586;9.692;2023-04-15T04:12:23;0.60;;;0.60;;
13991;SDS011;7070;53.586;9.692;2023-04-15T04:14:50;0.50;;;0.50;;
13991;SDS011;7070;53.586;9.692;2023-04-15T04:17:17;0.60;;;0.60;;
13991;SDS011;7070;53.586;9.692;2023-04-15T04:19:45;0.60;;;0.60;;
13991;SDS011;7070;53.586;9.692;2023-04-15T04:22:12;0.50;;;0.50;;
13991;SDS011;7070;53.586;9.692;2023-04-15T04:24:39;0.60;;;0.60;;
13991;SDS011;7070;53.586;9.692;2023-04-15T04:27:06;0.50;;;0.50;;
13991;SDS011;7070;53.586;9.692;2023-04-15T04:29:33;0.50;;;0.50;;
13991;SDS011;7070;53.586;9.692;2023-04-15T04:32:00;0.60;;;0.60;;
13991;SDS011;7070;53.586;9.692;2023-04-15T04:34:27;0.50;;;0.50;;
13991;SDS011;7070;53.586;9.692;2023-04-15T04:36:56;0.50;;;0.50;;
13991;SDS011;7070;53.586;9.692;2023-04-15T04:39:22;0.50;;;0.50;;
13991;SDS011;7070;53.586;9.692;2023-04-15T04:41:49;0.70;;;0.70;;
13991;SDS011;7070;53.586;9.692;2023-04-15T04:44:17;0.60;;;0.60;;
13991;SDS011;7070;53.586;9.692;2023-04-15T04:46:44;0.60;;;0.60;;
13991;SDS011;7070;53.586;9.692;2023-04-15T04:49:11;0.57;;;0.57;;
13991;SDS011;7070;53.586;9.692;2023-04-15T04:51:38;0.60;;;0.60;;
13991;SDS011;7070;53.586;9.692;2023-04-15T04:54:06;0.47;;;0.47;;
13991;SDS011;7070;53.586;9.692;2023-04-15T04:56:33;0.60;;;0.60;;
13991;SDS011;7070;53.586;9.692;2023-04-15T04:59:02;0.60;;;0.60;;
13991;SDS011;7070;53.586;9.692;2023-04-15T05:01:29;0.60;;;0.60;;
13991;SDS011;7070;53.586;9.692;2023-04-15T05:03:56;0.50;;;0.50;;
13991;SDS011;7070;53.586;9.692;2023-04-15T05:06:23;0.50;;;0.50;;
13991;SDS011;7070;53.586;9.692;2023-04-15T05:08:51;0.43;;;0.43;;
13991;SDS011;7070;53.586;9.692;2023-04-15T05:11:20;0.60;;;0.60;;
13991;SDS011;7070;53.586;9.692;2023-04-15T05:13:47;0.60;;;0.60;;
13991;SDS011;7070;53.586;9.692;2023-04-15T05:16:14;0.60;;;0.60;;
13991;SDS011;7070;53.586;9.692;2023-04-15T05:18:41;0.60;;;0.60;;
13991;SDS011;7070;53.586;9.692;2023-04-15T05:21:07;0.70;;;0.70;;
13991;SDS011;7070;53.586;9.692;2023-04-15T05:23:34;0.60;;;0.60;;
13991;SDS011;7070;53.586;9.692;2023-04-15T05:26:01;0.53;;;0.53;;
13991;SDS011;7070;53.586;9.692;2023-04-15T05:28:30;0.60;;;0.60;;
13991;SDS011;7070;53.586;9.692;2023-04-15T05:30:57;0.60;;;0.60;;
13991;SDS011;7070;53.586;9.692;2023-04-15T05:33:24;0.60;;;0.60;;
13991;SDS011;7070;53.586;9.692;2023-04-15T05:35:51;0.47;;;0.47;;
13991;SDS011;7070;53.586;9.692;2023-04-15T05:38:18;0.60;;;0.60;;
13991;SDS011;7070;53.586;9.692;2023-04-15T05:40:45;0.50;;;0.50;;
13991;SDS011;7070;53.586;9.692;2023-04-15T05:43:12;0.60;;;0.60;;
13991;SDS011;7070;53.586;9.692;2023-04-15T05:45:40;0.60;;;0.60;;
13991;SDS011;7070;53.586;9.692;2023-04-15T05:48:07;0.60;;;0.60;;
13991;SDS011;7070;53.586;9.692;2023-04-15T05:50:34;0.60;;;0.60;;
13991;SDS011;7070;53.586;9.692;2023-04-15T05:53:01;0.60;;;0.60;;
13991;SDS011;7070;53.586;9.692;2023-04-15T05:55:28;0.50;;;0.50;;
13991;SDS011;7070;53.586;9.692;2023-04-15T05:57:57;0.57;;;0.57;;
13991;SDS011;7070;53.586;9.692;2023-04-15T06:00:24;0.43;;;0.43;;
13991;SDS011;7070;53.586;9.692;2023-04-15T06:02:52;0.40;;;0.40;;
13991;SDS011;7070;53.586;9.692;2023-04-15T06:05:20;0.50;;;0.50;;
13991;SDS011;7070;53.586;9.692;2023-04-15T06:07:47;0.60;;;0.60;;
13991;SDS011;7070;53.586;9.692;2023-04-15T06:10:14;0.53;;;0.53;;
13991;SDS011;7070;53.586;9.692;2023-04-15T06:12:41;0.60;;;0.60;;
13991;SDS011;7070;53.586;9.692;2023-04-15T06:15:08;0.60;;;0.60;;
13991;SDS011;7070;53.586;9.692;2023-04-15T06:17:36;0.47;;;0.47;;
13991;SDS011;7070;53.586;9.692;2023-04-15T06:20:05;0.60;;;0.60;;
13991;SDS011;7070;53.586;9.692;2023-04-15T06:22:32;0.57;;;0.57;;
13991;SDS011;7070;53.586;9.692;2023-04-15T06:24:59;0.50;;;0.50;;
13991;SDS011;7070;53.586;9.692;2023-04-15T06:27:26;0.50;;;0.50;;
13991;SDS011;7070;53.586;9.692;2023-04-15T06:29:53;0.60;;;0.60;;
13991;SDS011;7070;53.586;9.692;2023-04-15T06:32:20;0.50;;;0.50;;
13991;SDS011;7070;53.586;9.692;2023-04-15T06:34:47;0.50;;;0.50;;
13991;SDS011;7070;53.586;9.692;2023-04-15T06:37:15;0.60;;;0.60;;
13991;SDS011;7070;53.586;9.692;2023-04-15T06:39:42;0.50;;;0.50;;
13991;SDS011;7070;53.586;9.692;2023-04-15T06:42:09;0.70;;;0.70;;
13991;SDS011;7070;53.586;9.692;2023-04-15T06:44:37;0.50;;;0.50;;
13991;SDS011;7070;53.586;9.692;2023-04-15T06:47:04;0.60;;;0.60;;
13991;SDS011;7070;53.586;9.692;2023-04-15T06:49:31;0.60;;;0.60;;
13991;SDS011;7070;53.586;9.692;2023-04-15T06:51:58;0.60;;;0.60;;
13991;SDS011;7070;53.586;9.692;2023-04-15T06:54:27;0.50;;;0.50;;
13991;SDS011;7070;53.586;9.692;2023-04-15T06:56:53;0.60;;;0.60;;
13991;SDS011;7070;53.586;9.692;2023-04-15T06:59:20;0.60;;;0.60;;
13991;SDS011;7070;53.586;9.692;2023-04-15T07:01:47;0.60;;;0.60;;
13991;SDS011;7070;53.586;9.692;2023-04-15T07:04:14;0.60;;;0.60;;
13991;SDS011;7070;53.586;9.692;2023-04-15T07:06:41;0.50;;;0.50;;
13991;SDS011;7070;53.586;9.692;2023-04-15T07:09:08;0.60;;;0.60;;
13991;SDS011;7070;53.586;9.692;2023-04-15T07:11:37;0.70;;;0.70;;
13991;SDS011;7070;53.586;9.692;2023-04-15T07:14:03;0.60;;;0.60;;
13991;SDS011;7070;53.586;9.692;2023-04-15T07:16:30;0.60;;;0.60;;
13991;SDS011;7070;53.586;9.692;2023-04-15T07:18:57;0.50;;;0.50;;
13991;SDS011;7070;53.586;9.692;2023-04-15T07:21:24;0.60;;;0.60;;
13991;SDS011;7070;53.586;9.692;2023-04-15T07:23:52;0.60;;;0.60;;
13991;SDS011;7070;53.586;9.692;2023-04-15T07:26:19;0.60;;;0.60;;
13991;SDS011;7070;53.586;9.692;2023-04-15T07:28:47;0.60;;;0.60;;
13991;SDS011;7070;53.586;9.692;2023-04-15T07:31:14;0.57;;;0.57;;
13991;SDS011;7070;53.586;9.692;2023-04-15T07:33:42;0.50;;;0.50;;
13991;SDS011;7070;53.586;9.692;2023-04-15T07:36:08;0.50;;;0.50;;
13991;SDS011;7070;53.586;9.692;2023-04-15T07:38:35;0.50;;;0.50;;
13991;SDS011;7070;53.586;9.692;2023-04-15T07:41:02;0.63;;;0.63;;
13991;SDS011;7070;53.586;9.692;2023-04-15T07:43:29;0.60;;;0.60;;
13991;SDS011;7070;53.586;9.692;2023-04-15T07:45:58;0.60;;;0.60;;
13991;SDS011;7070;53.586;9.692;2023-04-15T07:48:25;0.67;;;0.67;;
13991;SDS011;7070;53.586;9.692;2023-04-15T07:50:52;0.53;;;0.53;;
13991;SDS011;7070;53.586;9.692;2023-04-15T07:53:19;0.60;;;0.60;;
13991;SDS011;7070;53.586;9.692;2023-04-15T07:55:46;0.60;;;0.60;;
13991;SDS011;7070;53.586;9.692;2023-04-15T07:58:13;0.60;;;0.60;;
13991;SDS011;7070;53.586;9.692;2023-04-15T08:00:40;0.60;;;0.60;;
13991;SDS011;7070;53.586;9.692;2023-04-15T08:03:08;0.60;;;0.60;;
13991;SDS011;7070;53.586;9.692;2023-04-15T08:05:35;0.50;;;0.50;;
13991;SDS011;7070;53.586;9.692;2023-04-15T08:08:02;0.50;;;0.50;;
13991;SDS011;7070;53.586;9.692;2023-04-15T08:10:29;0.60;;;0.60;;
13991;SDS011;7070;53.586;9.692;2023-04-15T08:12:56;0.63;;;0.63;;
13991;SDS011;7070;53.586;9.692;2023-04-15T08:15:23;0.60;;;0.60;;
13991;SDS011;7070;53.586;9.692;2023-04-15T08:17:51;0.60;;;0.60;;
13991;SDS011;7070;53.586;9.692;2023-04-15T08:20:19;0.50;;;0.50;;
13991;SDS011;7070;53.586;9.692;2023-04-15T08:22:46;0.60;;;0.60;;
13991;SDS011;7070;53.586;9.692;2023-04-15T08:25:16;0.60;;;0.60;;
13991;SDS011;7070;53.586;9.692;2023-04-15T08:27:43;0.50;;;0.50;;
13991;SDS011;7070;53.586;9.692;2023-04-15T08:30:10;0.50;;;0.50;;
13991;SDS011;7070;53.586;9.692;2023-04-15T08:32:37;0.40;;;0.40;;
13991;SDS011;7070;53.586;9.692;2023-04-15T08:35:04;0.50;;;0.50;;
13991;SDS011;7070;53.586;9.692;2023-04-15T08:37:33;0.60;;;0.60;;
13991;SDS011;7070;53.586;9.692;2023-04-15T08:40:00;0.60;;;0.60;;
13991;SDS011;7070;53.586;9.692;2023-04-15T08:42:28;0.50;;;0.50;;
13991;SDS011;7070;53.586;9.692;2023-04-15T08:44:58;0.60;;;0.60;;
13991;SDS011;7070;53.586;9.692;2023-04-15T08:47:26;0.60;;;0.60;;
13991;SDS011;7070;53.586;9.692;2023-04-15T08:49:56;0.60;;;0.60;;
13991;SDS011;7070;53.586;9.692;2023-04-15T08:52:23;0.50;;;0.50;;
13991;SDS011;7070;53.586;9.692;2023-04-15T08:54:53;0.60;;;0.60;;
13991;SDS011;7070;53.586;9.692;2023-04-15T08:57:23;0.50;;;0.50;;
13991;SDS011;7070;53.586;9.692;2023-04-15T08:59:51;0.60;;;0.60;;
13991;SDS011;7070;53.586;9.692;2023-04-15T09:02:21;0.53;;;0.53;;
13991;SDS011;7070;53.586;9.692;2023-04-15T09:04:49;0.60;;;0.60;;
13991;SDS011;7070;53.586;9.692;2023-04-15T09:07:17;0.60;;;0.60;;
13991;SDS011;7070;53.586;9.692;2023-04-15T09:09:43;0.50;;;0.50;;
13991;SDS011;7070;53.586;9.692;2023-04-15T09:12:12;0.57;;;0.57;;
13991;SDS011;7070;53.586;9.692;2023-04-15T09:14:41;0.50;;;0.50;;
13991;SDS011;7070;53.586;9.692;2023-04-15T09:17:09;0.60;;;0.60;;
13991;SDS011;7070;53.586;9.692;2023-04-15T09:19:36;0.60;;;0.60;;
13991;SDS011;7070;53.586;9.692;2023-04-15T09:22:03;0.50;;;0.50;;
13991;SDS011;7070;53.586;9.692;2023-04-15T09:24:34;0.50;;;0.50;;
13991;SDS011;7070;53.586;9.692;2023-04-15T09:27:03;0.50;;;0.50;;
13991;SDS011;7070;53.586;9.692;2023-04-15T09:29:31;0.60;;;0.60;;
13991;SDS011;7070;53.586;9.692;2023-04-15T09:32:08;0.57;;;0.57;;
13991;SDS011;7070;53.586;9.692;2023-04-15T09:34:36;0.60;;;0.60;;
13991;SDS011;7070;53.586;9.692;2023-04-15T09:37:02;0.60;;;0.60;;
13991;SDS011;7070;53.586;9.692;2023-04-15T09:39:43;0.60;;;0.60;;
13991;SDS011;7070;53.586;9.692;2023-04-15T09:42:11;0.60;;;0.60;;
13991;SDS011;7070;53.586;9.692;2023-04-15T09:44:39;0.60;;;0.60;;
13991;SDS011;7070;53.586;9.692;2023-04-15T09:47:06;0.60;;;0.60;;
13991;SDS011;7070;53.586;9.692;2023-04-15T09:49:33;0.50;;;0.50;;
13991;SDS011;7070;53.586;9.692;2023-04-15T09:52:00;0.50;;;0.50;;
13991;SDS011;7070;53.586;9.692;2023-04-15T09:54:32;0.60;;;0.60;;
13991;SDS011;7070;53.586;9.692;2023-04-15T09:57:06;0.60;;;0.60;;
13991;SDS011;7070;53.586;9.692;2023-04-15T09:59:34;0.60;;;0.60;;
13991;SDS011;7070;53.586;9.692;2023-04-15T10:02:03;0.60;;;0.60;;
13991;SDS011;7070;53.586;9.692;2023-04-15T10:04:32;0.60;;;0.60;;
13991;SDS011;7070;53.586;9.692;2023-04-15T10:07:02;0.50;;;0.50;;
13991;SDS011;7070;53.586;9.692;2023-04-15T10:09:30;0.50;;;0.50;;
13991;SDS011;7070;53.586;9.692;2023-04-15T10:11:58;0.60;;;0.60;;
13991;SDS011;7070;53.586;9.692;2023-04-15T10:14:25;0.40;;;0.40;;
13991;SDS011;7070;53.586;9.692;2023-04-15T10:16:55;0.53;;;0.53;;
13991;SDS011;7070;53.586;9.692;2023-04-15T10:19:26;0.57;;;0.57;;
13991;SDS011;7070;53.586;9.692;2023-04-15T10:21:56;0.47;;;0.47;;
13991;SDS011;7070;53.586;9.692;2023-04-15T10:24:24;0.50;;;0.50;;
13991;SDS011;7070;53.586;9.692;2023-04-15T10:26:51;0.47;;;0.47;;
13991;SDS011;7070;53.586;9.692;2023-04-15T10:29:19;0.60;;;0.60;;
13991;SDS011;7070;53.586;9.692;2023-04-15T10:31:46;0.47;;;0.47;;
13991;SDS011;7070;53.586;9.692;2023-04-15T10:34:14;0.60;;;0.60;;
13991;SDS011;7070;53.586;9.692;2023-04-15T10:36:43;0.57;;;0.57;;
13991;SDS011;7070;53.586;9.692;2023-04-15T10:42:09;0.50;;;0.50;;
13991;SDS011;7070;53.586;9.692;2023-04-15T10:44:37;0.50;;;0.50;;
13991;SDS011;7070;53.586;9.692;2023-04-15T10:47:10;0.40;;;0.40;;
13991;SDS011;7070;53.586;9.692;2023-04-15T10:49:41;0.50;;;0.50;;
13991;SDS011;7070;53.586;9.692;2023-04-15T10:52:11;0.50;;;0.50;;
13991;SDS011;7070;53.586;9.692;2023-04-15T10:54:40;0.50;;;0.50;;
13991;SDS011;7070;53.586;9.692;2023-04-15T10:57:07;0.50;;;0.50;;
13991;SDS011;7070;53.586;9.692;2023-04-15T11:02:37;0.50;;;0.50;;
13991;SDS011;7070;53.586;9.692;2023-04-15T11:05:05;0.50;;;0.50;;
13991;SDS011;7070;53.586;9.692;2023-04-15T11:07:37;0.40;;;0.40;;
13991;SDS011;7070;53.586;9.692;2023-04-15T11:13:17;0.40;;;0.40;;
13991;SDS011;7070;53.586;9.692;2023-04-15T11:15:47;0.50;;;0.50;;
13991;SDS011;7070;53.586;9.692;2023-04-15T11:18:16;0.40;;;0.40;;
13991;SDS011;7070;53.586;9.692;2023-04-15T11:20:46;0.50;;;0.50;;
13991;SDS011;7070;53.586;9.692;2023-04-15T11:23:17;0.40;;;0.40;;
13991;SDS011;7070;53.586;9.692;2023-04-15T11:25:45;0.40;;;0.40;;
13991;SDS011;7070;53.586;9.692;2023-04-15T11:28:12;0.50;;;0.50;;
13991;SDS011;7070;53.586;9.692;2023-04-15T11:30:39;0.40;;;0.40;;
13991;SDS011;7070;53.586;9.692;2023-04-15T11:33:08;0.50;;;0.50;;
13991;SDS011;7070;53.586;9.692;2023-04-15T11:35:36;0.40;;;0.40;;
13991;SDS011;7070;53.586;9.692;2023-04-15T11:38:09;0.50;;;0.50;;
13991;SDS011;7070;53.586;9.692;2023-04-15T11:40:39;0.40;;;0.40;;
13991;SDS011;7070;53.586;9.692;2023-04-15T11:43:07;0.40;;;0.40;;
13991;SDS011;7070;53.586;9.692;2023-04-15T11:45:34;0.40;;;0.40;;
13991;SDS011;7070;53.586;9.692;2023-04-15T11:48:05;0.40;;;0.40;;
13991;SDS011;7070;53.586;9.692;2023-04-15T11:50:33;0.40;;;0.40;;
13991;SDS011;7070;53.586;9.692;2023-04-15T11:53:01;0.40;;;0.40;;
13991;SDS011;7070;53.586;9.692;2023-04-15T11:55:29;0.40;;;0.40;;
13991;SDS011;7070;53.586;9.692;2023-04-15T11:58:10;0.40;;;0.40;;
13991;SDS011;7070;53.586;9.692;2023-04-15T12:00:39;0.40;;;0.40;;
13991;SDS011;7070;53.586;9.692;2023-04-15T12:03:13;0.40;;;0.40;;
13991;SDS011;7070;53.586;9.692;2023-04-15T12:11:28;0.40;;;0.40;;
13991;SDS011;7070;53.586;9.692;2023-04-15T12:13:58;0.40;;;0.40;;
13991;SDS011;7070;53.586;9.692;2023-04-15T12:16:29;0.40;;;0.40;;
13991;SDS011;7070;53.586;9.692;2023-04-15T12:18:57;0.40;;;0.40;;
13991;SDS011;7070;53.586;9.692;2023-04-15T12:21:25;0.37;;;0.37;;
13991;SDS011;7070;53.586;9.692;2023-04-15T12:24:00;0.40;;;0.40;;
13991;SDS011;7070;53.586;9.692;2023-04-15T12:26:29;0.40;;;0.40;;
13991;SDS011;7070;53.586;9.692;2023-04-15T12:29:01;0.40;;;0.40;;
13991;SDS011;7070;53.586;9.692;2023-04-15T12:31:28;0.40;;;0.40;;
13991;SDS011;7070;53.586;9.692;2023-04-15T12:33:56;0.30;;;0.30;;
13991;SDS011;7070;53.586;9.692;2023-04-15T12:36:23;0.40;;;0.40;;
13991;SDS011;7070;53.586;9.692;2023-04-15T12:38:50;0.40;;;0.40;;
13991;SDS011;7070;53.586;9.692;2023-04-15T12:41:17;0.40;;;0.40;;
13991;SDS011;7070;53.586;9.692;2023-04-15T12:43:46;0.43;;;0.43;;
13991;SDS011;7070;53.586;9.692;2023-04-15T12:46:14;0.50;;;0.50;;
13991;SDS011;7070;53.586;9.692;2023-04-15T12:48:41;0.50;;;0.50;;
13991;SDS011;7070;53.586;9.692;2023-04-15T12:51:08;0.40;;;0.40;;
13991;SDS011;7070;53.586;9.692;2023-04-15T12:53:35;0.30;;;0.30;;
13991;SDS011;7070;53.586;9.692;2023-04-15T12:56:02;0.40;;;0.40;;
13991;SDS011;7070;53.586;9.692;2023-04-15T12:58:29;0.40;;;0.40;;
13991;SDS011;7070;53.586;9.692;2023-04-15T13:00:56;0.40;;;0.40;;
13991;SDS011;7070;53.586;9.692;2023-04-15T13:03:24;0.40;;;0.40;;
13991;SDS011;7070;53.586;9.692;2023-04-15T13:05:51;0.30;;;0.30;;
13991;SDS011;7070;53.586;9.692;2023-04-15T13:08:18;0.40;;;0.40;;
13991;SDS011;7070;53.586;9.692;2023-04-15T13:10:45;0.40;;;0.40;;
13991;SDS011;7070;53.586;9.692;2023-04-15T13:13:12;0.40;;;0.40;;
13991;SDS011;7070;53.586;9.692;2023-04-15T13:15:39;0.40;;;0.40;;
13991;SDS011;7070;53.586;9.692;2023-04-15T13:18:09;0.40;;;0.40;;
13991;SDS011;7070;53.586;9.692;2023-04-15T13:20:38;0.40;;;0.40;;
13991;SDS011;7070;53.586;9.692;2023-04-15T13:23:05;0.40;;;0.40;;
13991;SDS011;7070;53.586;9.692;2023-04-15T13:25:32;0.40;;;0.40;;
13991;SDS011;7070;53.586;9.692;2023-04-15T13:27:59;0.40;;;0.40;;
13991;SDS011;7070;53.586;9.692;2023-04-15T13:30:26;0.50;;;0.50;;
13991;SDS011;7070;53.586;9.692;2023-04-15T13:32:53;0.40;;;0.40;;
13991;SDS011;7070;53.586;9.692;2023-04-15T13:35:20;0.40;;;0.40;;
13991;SDS011;7070;53.586;9.692;2023-04-15T13:37:48;0.47;;;0.47;;
13991;SDS011;7070;53.586;9.692;2023-04-15T13:40:15;0.40;;;0.40;;
13991;SDS011;7070;53.586;9.692;2023-04-15T13:42:42;0.30;;;0.30;;
13991;SDS011;7070;53.586;9.692;2023-04-15T13:45:09;0.40;;;0.40;;
13991;SDS011;7070;53.586;9.692;2023-04-15T13:47:36;0.50;;;0.50;;
13991;SDS011;7070;53.586;9.692;2023-04-15T13:50:03;0.40;;;0.40;;
13991;SDS011;7070;53.586;9.692;2023-04-15T13:52:31;0.40;;;0.40;;
13991;SDS011;7070;53.586;9.692;2023-04-15T13:54:59;0.40;;;0.40;;
13991;SDS011;7070;53.586;9.692;2023-04-15T13:57:27;0.50;;;0.50;;
13991;SDS011;7070;53.586;9.692;2023-04-15T13:59:54;0.40;;;0.40;;
13991;SDS011;7070;53.586;9.692;2023-04-15T14:02:20;0.40;;;0.40;;
13991;SDS011;7070;53.586;9.692;2023-04-15T14:04:48;0.30;;;0.30;;
13991;SDS011;7070;53.586;9.692;2023-04-15T14:07:15;0.40;;;0.40;;
13991;SDS011;7070;53.586;9.692;2023-04-15T14:09:42;0.40;;;0.40;;
13991;SDS011;7070;53.586;9.692;2023-04-15T14:12:10;0.40;;;0.40;;
13991;SDS011;7070;53.586;9.692;2023-04-15T14:14:37;0.40;;;0.40;;
13991;SDS011;7070;53.586;9.692;2023-04-15T14:17:04;0.40;;;0.40;;
13991;SDS011;7070;53.586;9.692;2023-04-15T14:19:31;0.40;;;0.40;;
13991;SDS011;7070;53.586;9.692;2023-04-15T14:21:58;0.40;;;0.40;;
13991;SDS011;7070;53.586;9.692;2023-04-15T14:24:27;0.50;;;0.50;;
13991;SDS011;7070;53.586;9.692;2023-04-15T14:26:54;0.40;;;0.40;;
13991;SDS011;7070;53.586;9.692;2023-04-15T14:29:23;0.40;;;0.40;;
13991;SDS011;7070;53.586;9.692;2023-04-15T14:31:50;0.40;;;0.40;;
13991;SDS011;7070;53.586;9.692;2023-04-15T14:34:17;0.40;;;0.40;;
13991;SDS011;7070;53.586;9.692;2023-04-15T14:36:46;0.33;;;0.33;;
13991;SDS011;7070;53.586;9.692;2023-04-15T14:39:13;0.40;;;0.40;;
13991;SDS011;7070;53.586;9.692;2023-04-15T14:41:40;0.47;;;0.47;;
13991;SDS011;7070;53.586;9.692;2023-04-15T14:44:07;0.43;;;0.43;;
13991;SDS011;7070;53.586;9.692;2023-04-15T14:46:37;0.30;;;0.30;;
13991;SDS011;7070;53.586;9.692;2023-04-15T14:49:04;0.40;;;0.40;;
13991;SDS011;7070;53.586;9.692;2023-04-15T14:51:31;0.40;;;0.40;;
13991;SDS011;7070;53.586;9.692;2023-04-15T14:53:58;0.40;;;0.40;;
13991;SDS011;7070;53.586;9.692;2023-04-15T14:56:25;0.40;;;0.40;;
13991;SDS011;7070;53.586;9.692;2023-04-15T14:58:52;0.50;;;0.50;;
13991;SDS011;7070;53.586;9.692;2023-04-15T15:01:19;0.40;;;0.40;;
13991;SDS011;7070;53.586;9.692;2023-04-15T15:03:48;0.40;;;0.40;;
13991;SDS011;7070;53.586;9.692;2023-04-15T15:06:15;0.40;;;0.40;;
13991;SDS011;7070;53.586;9.692;2023-04-15T15:08:42;0.40;;;0.40;;
13991;SDS011;7070;53.586;9.692;2023-04-15T15:11:09;0.30;;;0.30;;
13991;SDS011;7070;53.586;9.692;2023-04-15T15:13:35;0.40;;;0.40;;
13991;SDS011;7070;53.586;9.692;2023-04-15T15:16:02;0.40;;;0.40;;
13991;SDS011;7070;53.586;9.692;2023-04-15T15:18:30;0.40;;;0.40;;